Time;durP1;ratioP1;P1;durP2;ratioP2;P2;SDS_P1;SDS_P2;PMS_P1;PMS_P2;Temp;Humidity;BMP_temperature;BMP_pressure;BME280_temperature;BME280_humidity;BME280_pressure;Samples;Min_cycle;Max_cycle;Signal;HPM_P1;HPM_P2
2021/12/27 00:01:01;;;;;;;;;;;;;;;1.07;65.33;100169.78;5089422;28;19919;-78
2021/12/27 00:03:26;;;;;;;;;;;;;;;1.08;65.27;100163.78;5073660;28;19951;-78
2021/12/27 00:05:52;;;;;;;;;;;;;;;1.10;65.23;100168.16;5056481;28;20349;-77
2021/12/27 00:08:17;;;;;;;;;;;;;;;1.15;65.16;100161.56;5064398;28;20065;-77
2021/12/27 00:10:43;;;;;;;;;;;;;;;1.22;65.11;100153.38;5090422;28;19927;-77
2021/12/27 00:13:08;;;;;;;;;;;;;;;1.19;65.06;100154.06;5090482;28;19920;-77
2021/12/27 00:15:33;;;;;;;;;;;;;;;1.19;65.02;100150.59;5076201;28;19920;-78
2021/12/27 00:17:59;;;;;;;;;;;;;;;1.19;64.99;100150.59;5069029;28;19920;-77
2021/12/27 00:20:25;;;;;;;;;;;;;;;1.17;64.97;100140.13;5056201;28;19963;-77
2021/12/27 00:22:51;;;;;;;;;;;;;;;1.18;64.93;100134.16;5081009;28;19923;-77
2021/12/27 00:25:16;;;;;;;;;;;;;;;1.18;64.88;100138.41;5094103;28;19955;-77
2021/12/27 00:27:45;;;;;;;;;;;;;;;1.22;64.86;100127.44;5087410;28;20021;-78
2021/12/27 00:30:11;;;;;;;;;;;;;;;1.24;64.81;100121.56;5092416;28;19977;-78
2021/12/27 00:32:43;;;;;;;;;;;;;;;1.23;64.80;100122.34;5076129;28;19928;-77
2021/12/27 00:35:09;;;;;;;;;;;;;;;1.23;64.77;100119.75;5084735;28;19949;-78
2021/12/27 00:37:35;;;;;;;;;;;;;;;1.24;64.74;100111.19;5072405;28;19920;-77
2021/12/27 00:40:00;;;;;;;;;;;;;;;1.23;64.72;100101.59;5059242;28;19927;-77
2021/12/27 00:42:25;;;;;;;;;;;;;;;1.24;64.69;100095.63;5095425;28;19932;-77
2021/12/27 00:44:50;;;;;;;;;;;;;;;1.27;64.67;100094.88;5077351;28;19946;-78
2021/12/27 00:47:16;;;;;;;;;;;;;;;1.26;64.64;100093.13;5055505;28;20019;-78
2021/12/27 00:49:41;;;;;;;;;;;;;;;1.28;64.62;100085.44;5063912;28;20305;-78
2021/12/27 00:52:07;;;;;;;;;;;;;;;1.29;64.59;100075.16;5079326;28;20006;-77
2021/12/27 00:54:32;;;;;;;;;;;;;;;1.31;64.56;100076.13;5081016;28;19920;-77
2021/12/27 00:56:57;;;;;;;;;;;;;;;1.27;64.56;100068.94;5058049;28;19924;-77
2021/12/27 00:59:23;;;;;;;;;;;;;;;1.26;64.52;100064.59;5080651;28;20018;-77
2021/12/27 01:01:49;;;;;;;;;;;;;;;1.31;64.50;100062.28;5086211;28;19927;-77
2021/12/27 01:04:15;;;;;;;;;;;;;;;1.31;64.49;100062.28;5114050;28;19919;-77
2021/12/27 01:06:40;;;;;;;;;;;;;;;1.32;64.47;100054.59;5081572;28;19930;-77
2021/12/27 01:09:14;;;;;;;;;;;;;;;1.32;64.46;100057.19;5078627;28;19925;-77
2021/12/27 01:12:09;;;;;;;;;;;;;;;1.33;64.44;100048.56;5098170;28;19927;-78
2021/12/27 01:14:41;;;;;;;;;;;;;;;1.39;64.41;100054.13;5082008;28;20287;-77
2021/12/27 01:17:07;;;;;;;;;;;;;;;1.37;64.41;100044.47;5077173;28;19920;-77
2021/12/27 01:19:32;;;;;;;;;;;;;;;1.37;64.40;100041.88;5084762;28;19924;-77
2021/12/27 01:21:58;;;;;;;;;;;;;;;1.39;64.40;100037.69;5099721;28;19920;-77
2021/12/27 01:24:24;;;;;;;;;;;;;;;1.39;64.35;100038.56;5067934;28;19925;-78
2021/12/27 01:26:49;;;;;;;;;;;;;;;1.39;64.36;100035.09;5079117;28;19924;-78
2021/12/27 01:29:18;;;;;;;;;;;;;;;1.42;64.34;100028.38;5078798;28;20336;-78
2021/12/27 01:31:43;;;;;;;;;;;;;;;1.46;64.31;100033.72;5061701;28;19924;-77
2021/12/27 01:34:09;;;;;;;;;;;;;;;1.42;64.33;100033.56;5074842;28;19926;-78
2021/12/27 01:36:35;;;;;;;;;;;;;;;1.43;64.33;100027.56;5059577;28;19921;-77
2021/12/27 01:39:01;;;;;;;;;;;;;;;1.47;64.29;100025.16;5059670;28;19920;-78
2021/12/27 01:41:27;;;;;;;;;;;;;;;1.46;64.28;100028.53;5103270;28;20313;-78
2021/12/27 01:43:53;;;;;;;;;;;;;;;1.47;64.27;100019.97;5099080;28;19920;-78
2021/12/27 01:46:22;;;;;;;;;;;;;;;1.49;64.28;100018.34;5092110;28;19926;-78
2021/12/27 01:48:55;;;;;;;;;;;;;;;1.53;64.25;100020.34;5069271;28;19966;-78
2021/12/27 01:51:21;;;;;;;;;;;;;;;1.53;64.25;100018.63;5075532;28;19926;-77
2021/12/27 01:53:47;;;;;;;;;;;;;;;1.56;64.24;100021.41;5098567;28;19927;-78
2021/12/27 01:56:17;;;;;;;;;;;;;;;1.57;64.23;100011.91;5098233;28;19923;-78
2021/12/27 01:58:48;;;;;;;;;;;;;;;1.59;64.22;100005.13;5080153;28;19924;-77
2021/12/27 02:01:13;;;;;;;;;;;;;;;1.58;64.20;100004.19;5076757;28;19920;-77
2021/12/27 02:03:41;;;;;;;;;;;;;;;1.61;64.19;100006.09;5084293;28;19950;-77
2021/12/27 02:06:07;;;;;;;;;;;;;;;1.64;64.19;100014.06;5066691;28;19928;-77
2021/12/27 02:08:38;;;;;;;;;;;;;;;1.66;64.18;100022.81;5087418;28;19921;-77
2021/12/27 02:11:04;;;;;;;;;;;;;;;1.66;64.18;100011.56;5069038;28;19920;-78
2021/12/27 02:13:30;;;;;;;;;;;;;;;1.66;64.17;100007.25;5095177;28;19920;-78
2021/12/27 02:15:55;;;;;;;;;;;;;;;1.67;64.17;100009.03;5077436;28;19924;-78
2021/12/27 02:18:21;;;;;;;;;;;;;;;1.67;64.15;100013.34;5070031;28;20027;-78
2021/12/27 02:20:46;;;;;;;;;;;;;;;1.67;64.17;100011.63;5057731;28;19955;-77
2021/12/27 02:23:16;;;;;;;;;;;;;;;1.70;64.14;100009.22;5086612;28;19924;-77
2021/12/27 02:25:43;;;;;;;;;;;;;;;1.71;64.14;100010.09;5070730;28;20272;-77
2021/12/27 02:28:10;;;;;;;;;;;;;;;1.75;64.14;100004.28;5078500;28;20003;-78
2021/12/27 02:30:35;;;;;;;;;;;;;;;1.75;64.13;100010.38;5082354;28;19924;-78
2021/12/27 02:33:05;;;;;;;;;;;;;;;1.79;64.14;100012.34;5083056;28;20688;-78
2021/12/27 02:35:32;;;;;;;;;;;;;;;1.81;64.12;100008.97;5091591;28;19920;-78
2021/12/27 02:37:59;;;;;;;;;;;;;;;1.83;64.11;100007.34;5075490;28;20276;-78
2021/12/27 02:40:25;;;;;;;;;;;;;;;1.86;64.11;99997.13;5077263;28;20260;-78
2021/12/27 02:42:51;;;;;;;;;;;;;;;1.88;64.11;99993.81;5092825;28;19970;-78
2021/12/27 02:45:18;;;;;;;;;;;;;;;1.93;64.10;99996.69;5090297;28;19924;-78
2021/12/27 02:47:44;;;;;;;;;;;;;;;1.92;64.11;99994.88;5076776;28;19948;-79
2021/12/27 02:50:11;;;;;;;;;;;;;;;2.00;64.09;99997.91;5070928;28;20352;-77
2021/12/27 02:52:36;;;;;;;;;;;;;;;1.97;64.08;99994.34;5086626;28;19924;-78
2021/12/27 02:55:02;;;;;;;;;;;;;;;1.94;64.09;99996.75;5079829;28;19920;-77
2021/12/27 02:57:27;;;;;;;;;;;;;;;1.97;64.08;99989.16;5076770;28;19927;-77
2021/12/27 02:59:53;;;;;;;;;;;;;;;1.97;64.08;99983.03;5057412;28;20003;-78
2021/12/27 03:02:19;;;;;;;;;;;;;;;1.98;64.08;99982.25;5065793;28;19972;-78
2021/12/27 03:04:46;;;;;;;;;;;;;;;2.01;64.06;99979.81;5060750;28;20356;-78
2021/12/27 03:07:11;;;;;;;;;;;;;;;2.04;64.07;99977.41;5057620;28;19930;-79
2021/12/27 03:09:38;;;;;;;;;;;;;;;2.03;64.07;99978.19;5073881;28;19999;-78
2021/12/27 03:12:04;;;;;;;;;;;;;;;2.09;64.04;99972.47;5099069;28;20616;-77
2021/12/27 03:14:30;;;;;;;;;;;;;;;2.07;64.06;99971.50;5078451;28;19927;-78
2021/12/27 03:16:55;;;;;;;;;;;;;;;2.08;64.04;99960.28;5097575;28;20365;-78
2021/12/27 03:19:20;;;;;;;;;;;;;;;2.09;64.04;99956.88;5092286;28;19927;-78
2021/12/27 03:21:45;;;;;;;;;;;;;;;2.08;64.04;99961.19;5077008;28;20503;-78
2021/12/27 03:24:12;;;;;;;;;;;;;;;2.09;64.04;99962.94;5078684;28;19924;-78
2021/12/27 03:26:37;;;;;;;;;;;;;;;2.06;64.05;99956.69;5095772;28;19919;-78
2021/12/27 03:29:07;;;;;;;;;;;;;;;2.02;64.05;99958.25;5077013;28;19920;-78
2021/12/27 03:31:32;;;;;;;;;;;;;;;2.03;64.04;99940.94;5080987;28;19945;-78
2021/12/27 03:33:59;;;;;;;;;;;;;;;2.02;64.05;99934.88;5083230;28;20357;-78
2021/12/27 03:36:28;;;;;;;;;;;;;;;2.04;64.05;99938.44;5076558;28;20022;-78
2021/12/27 03:38:56;;;;;;;;;;;;;;;2.06;64.04;99954.09;5076393;28;19920;-78
2021/12/27 03:41:23;;;;;;;;;;;;;;;2.02;64.05;99945.25;5081808;28;19927;-78
2021/12/27 03:43:49;;;;;;;;;;;;;;;2.05;64.03;99942.84;5096798;28;19919;-77
2021/12/27 03:46:15;;;;;;;;;;;;;;;2.06;64.04;99943.72;5089603;28;19984;-77
2021/12/27 03:48:41;;;;;;;;;;;;;;;2.04;64.03;99938.44;5094229;28;20267;-77
2021/12/27 03:51:07;;;;;;;;;;;;;;;2.06;64.02;99930.72;5090027;28;19921;-77
2021/12/27 03:53:32;;;;;;;;;;;;;;;2.11;64.03;99934.47;5084120;28;19959;-77
2021/12/27 03:55:57;;;;;;;;;;;;;;;2.11;64.02;99932.78;5086211;28;19924;-77
2021/12/27 03:58:28;;;;;;;;;;;;;;;2.11;64.02;99932.78;5075897;28;19920;-78
2021/12/27 04:03:19;;;;;;;;;;;;;;;2.17;64.02;99928.72;5094371;28;19924;-78
2021/12/27 04:05:45;;;;;;;;;;;;;;;2.15;64.01;99920.84;5088660;28;19939;-77
2021/12/27 04:08:18;;;;;;;;;;;;;;;2.19;64.01;99915.03;5076348;28;20015;-77
2021/12/27 04:10:44;;;;;;;;;;;;;;;2.22;64.00;99920.38;5069837;28;19921;-78
2021/12/27 04:13:10;;;;;;;;;;;;;;;2.23;63.99;99911.75;5089307;28;19962;-77
2021/12/27 04:15:36;;;;;;;;;;;;;;;2.24;63.99;99907.47;5084060;28;20191;-77
2021/12/27 04:18:04;;;;;;;;;;;;;;;2.29;63.99;99908.63;5056132;28;20357;-77
2021/12/27 04:20:29;;;;;;;;;;;;;;;2.28;64.00;99907.69;5053915;28;19963;-77
2021/12/27 04:22:54;;;;;;;;;;;;;;;2.30;64.00;99912.97;5067809;28;20398;-77
2021/12/27 04:25:21;;;;;;;;;;;;;;;2.29;64.01;99912.09;5089723;28;19927;-77
2021/12/27 04:27:49;;;;;;;;;;;;;;;2.31;64.00;99896.59;5059436;28;19928;-78
2021/12/27 04:30:15;;;;;;;;;;;;;;;2.30;63.99;99902.59;5078108;28;19919;-78
2021/12/27 04:32:41;;;;;;;;;;;;;;;2.29;63.99;99895.63;5055708;28;19932;-77
2021/12/27 04:35:07;;;;;;;;;;;;;;;2.30;64.00;99895.72;5080049;28;19923;-78
2021/12/27 04:37:33;;;;;;;;;;;;;;;2.32;63.98;99893.19;5077167;28;20014;-76
2021/12/27 04:39:58;;;;;;;;;;;;;;;2.30;64.01;99887.00;5059966;28;19963;-78
2021/12/27 04:42:25;;;;;;;;;;;;;;;2.31;64.02;99886.19;5082977;28;19919;-78
2021/12/27 04:44:51;;;;;;;;;;;;;;;2.32;64.03;99883.69;5098767;28;19964;-78
2021/12/27 04:47:18;;;;;;;;;;;;;;;2.30;64.04;99885.31;5078812;28;20015;-77
2021/12/27 04:49:43;;;;;;;;;;;;;;;2.28;64.03;99883.44;5079515;28;19916;-77
2021/12/27 04:52:09;;;;;;;;;;;;;;;2.31;64.04;99892.28;5095360;28;19920;-77
2021/12/27 04:54:35;;;;;;;;;;;;;;;2.32;64.04;99886.28;5086539;28;19920;-78
2021/12/27 04:57:00;;;;;;;;;;;;;;;2.35;64.02;99882.97;5073220;28;20094;-78
2021/12/27 04:59:27;;;;;;;;;;;;;;;2.38;64.03;99898.72;5088883;28;20525;-77
2021/12/27 05:01:53;;;;;;;;;;;;;;;2.38;64.01;99885.72;5070077;28;19924;-77
2021/12/27 05:04:18;;;;;;;;;;;;;;;2.41;64.00;99874.56;5087718;28;19949;-78
2021/12/27 05:06:44;;;;;;;;;;;;;;;2.42;64.03;99874.66;5085083;28;19925;-77
2021/12/27 05:09:11;;;;;;;;;;;;;;;2.40;64.03;99870.22;5083888;28;19927;-77
2021/12/27 05:11:36;;;;;;;;;;;;;;;2.44;64.02;99869.53;5084905;28;20796;-78
2021/12/27 05:14:01;;;;;;;;;;;;;;;2.50;64.01;99865.59;5092724;28;19920;-77
2021/12/27 05:16:28;;;;;;;;;;;;;;;2.47;64.03;99857.63;5078538;28;19927;-77
2021/12/27 05:18:54;;;;;;;;;;;;;;;2.48;64.02;99864.59;5090403;28;20424;-77
2021/12/27 05:21:22;;;;;;;;;;;;;;;2.50;64.03;99867.28;5081936;28;19927;-78
2021/12/27 05:23:47;;;;;;;;;;;;;;;2.51;64.02;99864.75;5062729;28;19928;-78
2021/12/27 05:26:12;;;;;;;;;;;;;;;2.54;64.02;99855.34;5082239;28;19920;-77
2021/12/27 05:28:38;;;;;;;;;;;;;;;2.56;64.03;99853.72;5087790;28;19920;-78
2021/12/27 05:31:04;;;;;;;;;;;;;;;2.57;64.02;99858.09;5112233;28;19920;-77
2021/12/27 05:33:30;;;;;;;;;;;;;;;2.58;64.08;99852.06;5079035;28;19920;-78
2021/12/27 05:35:56;;;;;;;;;;;;;;;2.61;64.04;99844.44;5071232;28;19925;-78
2021/12/27 05:38:22;;;;;;;;;;;;;;;2.57;64.04;99843.41;5063401;28;19993;-78
2021/12/27 05:40:48;;;;;;;;;;;;;;;2.59;64.05;99841.75;5060956;28;19924;-78
2021/12/27 05:43:13;;;;;;;;;;;;;;;2.61;64.05;99837.56;5086060;28;20197;-78
2021/12/27 05:45:38;;;;;;;;;;;;;;;2.65;64.04;99842.06;5076993;28;19924;-77
2021/12/27 05:48:06;;;;;;;;;;;;;;;2.69;64.03;99838.81;5075344;28;20384;-78
2021/12/27 05:50:32;;;;;;;;;;;;;;;2.76;64.04;99847.81;5117130;28;19926;-77
2021/12/27 05:52:58;;;;;;;;;;;;;;;2.85;64.03;99858.69;5093656;28;19920;-77
2021/12/27 05:55:24;;;;;;;;;;;;;;;2.87;64.03;99849.28;5096520;28;20229;-78
2021/12/27 05:57:50;;;;;;;;;;;;;;;2.92;64.03;99846.91;5071049;28;20512;-77
2021/12/27 06:00:16;;;;;;;;;;;;;;;3.07;64.03;99843.28;5075632;28;19998;-77
2021/12/27 06:02:42;;;;;;;;;;;;;;;3.04;64.03;99841.41;5061541;28;19979;-78
2021/12/27 06:05:08;;;;;;;;;;;;;;;3.05;64.02;99845.81;5063455;28;19920;-78
2021/12/27 06:07:35;;;;;;;;;;;;;;;3.10;64.03;99857.34;5059116;28;20380;-78
2021/12/27 06:10:01;;;;;;;;;;;;;;;3.09;64.04;99841.66;5058134;28;19963;-78
2021/12/27 06:12:26;;;;;;;;;;;;;;;3.12;64.01;99849.59;5078158;28;19963;-78
2021/12/27 06:14:52;;;;;;;;;;;;;;;3.13;64.01;99847.06;5066153;28;19970;-78
2021/12/27 06:17:19;;;;;;;;;;;;;;;3.16;64.00;99842.03;5074431;28;20378;-78
2021/12/27 06:19:44;;;;;;;;;;;;;;;3.16;64.04;99842.03;5061371;28;19920;-78
2021/12/27 06:22:10;;;;;;;;;;;;;;;3.17;64.00;99837.72;5058542;28;19920;-78
2021/12/27 06:24:35;;;;;;;;;;;;;;;3.25;63.98;99839.00;5073324;28;19920;-78
2021/12/27 06:27:00;;;;;;;;;;;;;;;3.21;63.99;99840.53;5074243;28;20688;-78
2021/12/27 06:29:26;;;;;;;;;;;;;;;3.22;63.99;99842.31;5075028;28;20062;-78
2021/12/27 06:31:52;;;;;;;;;;;;;;;3.30;64.00;99839.22;5070486;28;19928;-78
2021/12/27 06:34:19;;;;;;;;;;;;;;;3.29;63.98;99846.13;5059006;28;19951;-79
2021/12/27 06:36:46;;;;;;;;;;;;;;;3.34;63.99;99841.13;5057443;28;19920;-77
2021/12/27 06:39:12;;;;;;;;;;;;;;;3.37;63.99;99849.09;5041706;28;19974;-77
2021/12/27 06:41:38;;;;;;;;;;;;;;;3.37;63.98;99841.28;5045481;28;19932;-77
2021/12/27 06:44:04;;;;;;;;;;;;;;;3.39;63.98;99857.88;5074932;28;19920;-78
2021/12/27 06:46:29;;;;;;;;;;;;;;;3.42;63.97;99845.03;5094623;28;19919;-78
2021/12/27 06:48:57;;;;;;;;;;;;;;;3.49;63.97;99841.00;5078122;28;20003;-77
2021/12/27 06:51:23;;;;;;;;;;;;;;;3.50;63.98;99838.47;5101581;28;19951;-77
2021/12/27 06:53:49;;;;;;;;;;;;;;;3.54;63.97;99839.50;5087455;28;19930;-78
2021/12/27 06:56:14;;;;;;;;;;;;;;;3.55;63.98;99843.91;5088219;28;19963;-79
2021/12/27 06:58:40;;;;;;;;;;;;;;;3.57;63.95;99850.97;5057060;28;20233;-77
2021/12/27 07:01:07;;;;;;;;;;;;;;;3.61;63.96;99853.72;5098289;28;20280;-77
2021/12/27 07:03:32;;;;;;;;;;;;;;;3.61;63.96;99853.72;5096947;28;19919;-78
2021/12/27 07:05:59;;;;;;;;;;;;;;;3.63;63.95;99844.25;5071761;28;19920;-78
2021/12/27 07:08:30;;;;;;;;;;;;;;;3.76;63.93;99836.22;5080666;28;19920;-78
2021/12/27 07:10:56;;;;;;;;;;;;;;;3.77;63.92;99838.88;5077001;28;19924;-78
2021/12/27 07:13:21;;;;;;;;;;;;;;;3.80;63.93;99829.44;5084364;28;20140;-78
2021/12/27 07:15:47;;;;;;;;;;;;;;;3.79;63.93;99825.91;5115149;28;19924;-78
2021/12/27 07:18:20;;;;;;;;;;;;;;;3.83;63.93;99827.84;5111734;28;20417;-78
2021/12/27 07:20:47;;;;;;;;;;;;;;;3.80;63.92;99832.91;5078917;28;19920;-78
2021/12/27 07:23:12;;;;;;;;;;;;;;;3.85;63.93;99825.31;5086675;28;20275;-78
2021/12/27 07:25:38;;;;;;;;;;;;;;;3.91;63.93;99825.59;5061866;28;19924;-79
2021/12/27 07:28:04;;;;;;;;;;;;;;;3.89;63.93;99820.31;5077370;28;20019;-78
2021/12/27 07:30:29;;;;;;;;;;;;;;;3.89;63.93;99817.72;5063957;28;19924;-78
2021/12/27 07:32:55;;;;;;;;;;;;;;;3.95;63.94;99815.41;5081039;28;20355;-77
2021/12/27 07:35:20;;;;;;;;;;;;;;;3.97;63.93;99809.38;5097910;28;19926;-77
2021/12/27 07:37:47;;;;;;;;;;;;;;;3.95;63.94;99814.53;5082984;28;19919;-78
2021/12/27 07:40:12;;;;;;;;;;;;;;;3.90;63.97;99819.53;5066934;28;20012;-77
2021/12/27 07:42:37;;;;;;;;;;;;;;;3.92;63.95;99820.47;5070830;28;19960;-78
2021/12/27 07:45:03;;;;;;;;;;;;;;;3.91;63.97;99821.28;5073856;28;20288;-79
2021/12/27 07:47:28;;;;;;;;;;;;;;;3.87;63.97;99829.78;5069936;28;20027;-78
2021/12/27 07:49:53;;;;;;;;;;;;;;;3.83;64.00;99827.84;5067497;28;19928;-78
2021/12/27 07:52:19;;;;;;;;;;;;;;;3.81;64.05;99834.72;5074965;28;19916;-76
2021/12/27 07:54:44;;;;;;;;;;;;;;;3.79;64.06;99823.31;5072774;28;19927;-77
2021/12/27 07:57:11;;;;;;;;;;;;;;;3.75;64.08;99821.41;5055825;28;19921;-78
2021/12/27 07:59:36;;;;;;;;;;;;;;;3.76;64.08;99829.28;5056692;28;19924;-78
2021/12/27 08:02:02;;;;;;;;;;;;;;;3.76;64.07;99828.41;5055882;28;20106;-78
2021/12/27 08:04:27;;;;;;;;;;;;;;;3.71;64.09;99827.28;5052398;28;19924;-78
2021/12/27 08:06:53;;;;;;;;;;;;;;;3.67;64.10;99827.97;5076540;28;20442;-78
2021/12/27 08:09:19;;;;;;;;;;;;;;;3.63;64.11;99823.44;5096561;28;19920;-77
2021/12/27 08:11:44;;;;;;;;;;;;;;;3.60;64.10;99824.16;5095727;28;19927;-78
2021/12/27 08:14:11;;;;;;;;;;;;;;;3.66;64.10;99828.78;5094389;28;20094;-78
2021/12/27 08:16:37;;;;;;;;;;;;;;;3.63;64.11;99818.22;5055963;28;19924;-78
2021/12/27 08:19:04;;;;;;;;;;;;;;;3.68;64.12;99824.53;5055640;28;19978;-77
2021/12/27 08:21:32;;;;;;;;;;;;;;;3.70;64.09;99823.78;5093819;28;19947;-78
2021/12/27 08:23:58;;;;;;;;;;;;;;;3.75;64.09;99808.38;5065842;28;20385;-78
2021/12/27 08:26:25;;;;;;;;;;;;;;;3.73;64.12;99804.84;5039487;28;19925;-78
2021/12/27 08:28:52;;;;;;;;;;;;;;;3.69;64.11;99808.09;5070292;28;19954;-78
2021/12/27 08:31:18;;;;;;;;;;;;;;;3.70;64.11;99802.09;5094966;28;19920;-78
2021/12/27 08:33:43;;;;;;;;;;;;;;;3.70;64.11;99804.69;5078839;28;19924;-77
2021/12/27 08:36:11;;;;;;;;;;;;;;;3.73;64.11;99803.09;5068491;28;20348;-78
2021/12/27 08:38:37;;;;;;;;;;;;;;;3.74;64.09;99811.81;5059363;28;19928;-78
2021/12/27 08:41:03;;;;;;;;;;;;;;;3.76;64.11;99794.56;5071566;28;19927;-78
2021/12/27 08:43:30;;;;;;;;;;;;;;;3.79;64.10;99799.88;5072274;28;19921;-79
2021/12/27 08:45:56;;;;;;;;;;;;;;;3.79;64.11;99799.88;5069557;28;19920;-78
2021/12/27 08:48:22;;;;;;;;;;;;;;;3.86;64.10;99796.75;5055327;28;19924;-78
2021/12/27 08:50:48;;;;;;;;;;;;;;;3.84;64.10;99787.06;5083241;28;19920;-77
2021/12/27 08:53:15;;;;;;;;;;;;;;;3.87;64.10;99782.91;5092424;28;20328;-77
2021/12/27 08:55:40;;;;;;;;;;;;;;;3.90;64.10;99790.88;5069069;28;19924;-78
2021/12/27 08:58:11;;;;;;;;;;;;;;;3.89;64.10;99776.06;5080872;28;19927;-80
2021/12/27 09:00:38;;;;;;;;;;;;;;;3.99;64.09;99774.75;5085843;28;20281;-79
2021/12/27 09:03:03;;;;;;;;;;;;;;;4.00;64.09;99757.41;5060293;28;19927;-77
2021/12/27 09:05:30;;;;;;;;;;;;;;;4.03;64.08;99767.97;5073858;28;19928;-79
2021/12/27 09:08:00;;;;;;;;;;;;;;;4.06;64.10;99762.91;5070345;28;19924;-77
2021/12/27 09:10:27;;;;;;;;;;;;;;;4.10;64.10;99760.50;5071377;28;19927;-78
2021/12/27 09:12:52;;;;;;;;;;;;;;;4.08;64.09;99787.31;5075171;28;19977;-78
2021/12/27 09:15:19;;;;;;;;;;;;;;;4.12;64.09;99787.50;5070819;28;19928;-78
2021/12/27 09:17:47;;;;;;;;;;;;;;;4.11;64.10;99797.88;5053729;28;20646;-77
2021/12/27 09:20:16;;;;;;;;;;;;;;;4.06;64.10;99800.25;5054658;28;20509;-78
2021/12/27 09:22:42;;;;;;;;;;;;;;;4.09;64.10;99802.13;5078939;28;19923;-79
2021/12/27 09:25:08;;;;;;;;;;;;;;;4.16;64.08;99811.97;5070391;28;19921;-78
2021/12/27 09:27:33;;;;;;;;;;;;;;;4.21;64.10;99807.88;5060653;28;19924;-78
2021/12/27 09:29:58;;;;;;;;;;;;;;;4.28;64.09;99812.53;5060466;28;19931;-78
2021/12/27 09:32:24;;;;;;;;;;;;;;;4.32;64.07;99816.19;5060660;28;19921;-78
2021/12/27 09:34:50;;;;;;;;;;;;;;;4.41;64.06;99805.25;5069853;28;20374;-78
2021/12/27 09:37:17;;;;;;;;;;;;;;;4.43;64.07;99795.81;5058409;28;19974;-79
2021/12/27 09:39:42;;;;;;;;;;;;;;;4.41;64.10;99797.44;5059391;28;19954;-78
2021/12/27 09:42:07;;;;;;;;;;;;;;;4.47;64.09;99796.00;5076683;28;20364;-79
2021/12/27 09:44:33;;;;;;;;;;;;;;;4.53;64.05;99792.75;5064161;28;20363;-79
2021/12/27 09:46:58;;;;;;;;;;;;;;;4.60;64.06;99784.38;5089147;28;19973;-79
2021/12/27 09:49:29;;;;;;;;;;;;;;;4.55;64.06;99783.28;5083285;28;20272;-79
2021/12/27 09:51:57;;;;;;;;;;;;;;;4.60;64.06;99779.16;5067135;28;19921;-77
2021/12/27 09:54:24;;;;;;;;;;;;;;;4.66;64.07;99766.38;5067956;28;19920;-78
2021/12/27 09:56:51;;;;;;;;;;;;;;;4.62;64.08;99756.66;5077153;28;19923;-78
2021/12/27 09:59:24;;;;;;;;;;;;;;;4.58;64.07;99762.53;5065161;28;19932;-78
2021/12/27 10:01:51;;;;;;;;;;;;;;;4.63;64.07;99748.00;5066056;28;20346;-79
2021/12/27 10:04:17;;;;;;;;;;;;;;;4.58;64.07;99754.72;5076143;28;19928;-79
2021/12/27 10:06:43;;;;;;;;;;;;;;;4.58;64.08;99752.09;5078291;28;20404;-79
2021/12/27 10:09:09;;;;;;;;;;;;;;;4.61;64.09;99753.97;5086561;28;19920;-80
2021/12/27 10:11:37;;;;;;;;;;;;;;;4.63;64.07;99748.00;5069343;28;19924;-79
2021/12/27 10:14:02;;;;;;;;;;;;;;;4.65;64.08;99750.69;5084874;28;19923;-79
2021/12/27 10:16:29;;;;;;;;;;;;;;;4.65;64.07;99751.56;5072404;28;20276;-79
2021/12/27 10:18:58;;;;;;;;;;;;;;;4.72;64.07;99752.69;5089708;28;20470;-79
2021/12/27 10:21:25;;;;;;;;;;;;;;;4.66;64.06;99761.19;5075437;28;19960;-78
2021/12/27 10:24:10;;;;;;;;;;;;;;;4.66;64.06;99766.38;5074034;28;19956;-79
2021/12/27 10:26:36;;;;;;;;;;;;;;;4.65;64.06;99762.00;5061444;28;19951;-76
2021/12/27 10:29:13;;;;;;;;;;;;;;;4.73;64.06;99751.00;5060784;28;19932;-79
2021/12/27 10:31:57;;;;;;;;;;;;;;;4.75;64.06;99758.03;5061137;28;20046;-79
2021/12/27 10:34:24;;;;;;;;;;;;;;;4.82;64.04;99751.38;5067464;28;19952;-79
2021/12/27 10:37:00;;;;;;;;;;;;;;;4.88;64.02;99751.63;5067055;28;19921;-79
2021/12/27 10:39:49;;;;;;;;;;;;;;;4.97;64.03;99738.06;5075340;28;19925;-79
2021/12/27 10:42:20;;;;;;;;;;;;;;;5.09;64.02;99749.00;5071800;28;19928;-78
2021/12/27 10:44:46;;;;;;;;;;;;;;;5.11;64.01;99744.75;5076495;28;19982;-78
2021/12/27 10:47:26;;;;;;;;;;;;;;;5.21;64.01;99748.59;5072426;28;19924;-78
2021/12/27 10:49:53;;;;;;;;;;;;;;;5.31;64.01;99747.25;5083331;28;19927;-79
2021/12/27 10:52:20;;;;;;;;;;;;;;;5.38;64.00;99749.28;5086777;28;19927;-79
2021/12/27 10:54:45;;;;;;;;;;;;;;;5.42;63.99;99739.81;5075536;28;19931;-78
2021/12/27 10:57:14;;;;;;;;;;;;;;;5.48;63.98;99738.34;5056899;28;19920;-77
2021/12/27 10:59:39;;;;;;;;;;;;;;;5.54;63.97;99748.13;5057775;28;20276;-80
2021/12/27 11:02:13;;;;;;;;;;;;;;;5.54;63.97;99741.19;5059325;28;21359;-78
2021/12/27 11:04:39;;;;;;;;;;;;;;;5.72;63.97;99742.72;5063898;28;19921;-80
2021/12/27 11:07:06;;;;;;;;;;;;;;;5.75;63.96;99737.63;5071504;28;19920;-79
2021/12/27 11:09:33;;;;;;;;;;;;;;;5.74;63.96;99731.50;5106958;28;20525;-77
2021/12/27 11:11:59;;;;;;;;;;;;;;;5.80;63.95;99720.38;5074126;28;19919;-79
2021/12/27 11:14:25;;;;;;;;;;;;;;;5.77;63.96;99720.28;5110521;28;20611;-78
2021/12/27 11:16:50;;;;;;;;;;;;;;;5.93;63.94;99720.03;5076455;28;19924;-77
2021/12/27 11:19:16;;;;;;;;;;;;;;;5.87;63.95;99716.28;5056804;28;19928;-77
2021/12/27 11:21:41;;;;;;;;;;;;;;;5.92;63.93;99714.75;5072223;28;19966;-78
2021/12/27 11:24:09;;;;;;;;;;;;;;;5.95;63.93;99709.63;5097570;28;20586;-80
2021/12/27 11:26:35;;;;;;;;;;;;;;;5.91;63.92;99708.59;5097206;28;19927;-78
2021/12/27 11:29:22;;;;;;;;;;;;;;;5.90;63.94;99705.94;5097443;28;19950;-78
2021/12/27 11:31:52;;;;;;;;;;;;;;;5.88;63.93;99705.00;5086069;28;19923;-79
2021/12/27 11:34:19;;;;;;;;;;;;;;;5.84;63.94;99698.78;5066974;28;20594;-78
2021/12/27 11:36:46;;;;;;;;;;;;;;;5.86;63.95;99701.44;5068307;28;19927;-79
2021/12/27 11:39:25;;;;;;;;;;;;;;;5.82;63.94;99703.03;5071109;28;19920;-77
2021/12/27 11:42:07;;;;;;;;;;;;;;;5.89;63.94;99706.78;5088879;28;20194;-78
2021/12/27 11:44:43;;;;;;;;;;;;;;;5.86;63.93;99701.44;5065711;28;20023;-76
2021/12/27 11:47:09;;;;;;;;;;;;;;;5.82;63.93;99694.31;5078852;28;20383;-79
2021/12/27 11:49:53;;;;;;;;;;;;;;;5.81;63.94;99693.44;5081439;28;19920;-78
2021/12/27 11:52:29;;;;;;;;;;;;;;;5.81;63.93;99674.25;5068100;28;20019;-78
2021/12/27 11:55:07;;;;;;;;;;;;;;;5.81;63.93;99666.41;5057270;28;20256;-79
2021/12/27 11:57:56;;;;;;;;;;;;;;;5.90;63.92;99664.13;5056338;28;19920;-78
2021/12/27 12:00:24;;;;;;;;;;;;;;;5.99;63.92;99661.88;5056663;28;19970;-79
2021/12/27 12:02:51;;;;;;;;;;;;;;;6.02;63.92;99651.53;5053500;28;19925;-77
2021/12/27 12:05:36;;;;;;;;;;;;;;;5.96;63.94;99655.63;5053341;28;19931;-77
2021/12/27 12:08:02;;;;;;;;;;;;;;;6.08;63.91;99659.59;5065843;28;20043;-77
2021/12/27 12:10:30;;;;;;;;;;;;;;;6.02;63.93;99658.50;5073119;28;19967;-78
2021/12/27 12:13:14;;;;;;;;;;;;;;;5.93;63.94;99666.84;5072289;28;19928;-78
2021/12/27 12:15:54;;;;;;;;;;;;;;;5.85;63.95;99656.13;5070146;28;19921;-78
2021/12/27 12:18:19;;;;;;;;;;;;;;;5.83;63.93;99659.53;5056451;28;19960;-76
2021/12/27 12:20:44;;;;;;;;;;;;;;;5.89;63.94;99660.63;5051322;28;19948;-78
2021/12/27 12:23:10;;;;;;;;;;;;;;;5.90;63.93;99659.81;5036705;28;19953;-77
2021/12/27 12:25:37;;;;;;;;;;;;;;;5.86;63.93;99647.47;5072694;28;19927;-78
2021/12/27 12:28:03;;;;;;;;;;;;;;;5.89;63.95;99646.69;5072524;28;19932;-78
2021/12/27 12:30:34;;;;;;;;;;;;;;;5.94;63.93;99634.66;5072948;28;19921;-77
2021/12/27 12:33:19;;;;;;;;;;;;;;;5.99;63.94;99638.34;5073291;28;19928;-78
2021/12/27 12:35:46;;;;;;;;;;;;;;;6.02;63.93;99628.00;5067951;28;19920;-78
2021/12/27 12:38:15;;;;;;;;;;;;;;;5.97;63.94;99631.31;5063663;28;19924;-78
2021/12/27 12:40:41;;;;;;;;;;;;;;;5.93;63.96;99625.03;5072595;28;19927;-78
2021/12/27 12:43:07;;;;;;;;;;;;;;;5.96;63.96;99632.13;5071274;28;19924;-77
2021/12/27 12:45:32;;;;;;;;;;;;;;;6.03;63.96;99634.13;5055864;28;19932;-77
2021/12/27 12:48:00;;;;;;;;;;;;;;;6.07;63.95;99628.16;5055433;28;19925;-77
2021/12/27 12:50:25;;;;;;;;;;;;;;;6.06;63.96;99624.69;5059768;28;19920;-78
2021/12/27 12:52:56;;;;;;;;;;;;;;;6.06;63.97;99621.16;5057494;28;19924;-78
2021/12/27 12:55:22;;;;;;;;;;;;;;;6.06;63.98;99619.44;5066734;28;19928;-78
2021/12/27 12:57:50;;;;;;;;;;;;;;;6.00;63.99;99621.84;5052928;28;19975;-77